createdAt,value
2019-03-08T00:02:21.930Z,2.30
2019-03-08T00:07:27.414Z,2.20
2019-03-08T00:12:32.899Z,2.90
2019-03-08T00:17:38.100Z,2.15
2019-03-08T00:22:43.404Z,1.98
2019-03-08T00:27:48.658Z,2.37
2019-03-08T00:32:54.102Z,2.27
2019-03-08T00:37:59.375Z,2.90
2019-03-08T00:43:04.917Z,3.73
2019-03-08T00:48:10.158Z,3.20
2019-03-08T00:53:15.829Z,2.23
2019-03-08T00:58:21.277Z,2.80
2019-03-08T01:03:26.512Z,2.17
2019-03-08T01:08:32.014Z,2.10
2019-03-08T01:13:37.312Z,3.73
2019-03-08T01:18:42.605Z,2.60
2019-03-08T01:23:47.840Z,2.85
2019-03-08T01:28:53.115Z,2.67
2019-03-08T01:33:58.321Z,3.53
2019-03-08T01:39:04.695Z,1.87
2019-03-08T01:44:09.990Z,2.90
2019-03-08T01:49:15.226Z,3.07
2019-03-08T01:54:20.689Z,2.07
2019-03-08T01:59:25.961Z,1.90
2019-03-08T02:04:32.161Z,2.87
2019-03-08T02:09:37.390Z,3.20
2019-03-08T02:14:42.783Z,2.17
2019-03-08T02:19:48.175Z,3.12
2019-03-08T02:24:53.387Z,2.50
2019-03-08T02:29:58.665Z,2.50
2019-03-08T02:35:04.005Z,2.57
2019-03-08T02:40:27.180Z,2.20
2019-03-08T02:45:32.686Z,2.90
2019-03-08T02:50:38.120Z,2.00
2019-03-08T02:55:43.370Z,1.50
2019-03-08T03:00:48.926Z,1.98
2019-03-08T03:05:54.202Z,1.90
2019-03-08T03:10:59.440Z,1.43
2019-03-08T03:16:04.741Z,1.10
2019-03-08T03:21:09.945Z,1.37
2019-03-08T03:26:15.264Z,1.73
2019-03-08T03:31:20.497Z,1.73
2019-03-08T03:36:25.775Z,1.30
2019-03-08T03:41:31.365Z,1.20
2019-03-08T03:46:36.635Z,1.93
2019-03-08T03:51:41.870Z,1.67
2019-03-08T03:56:47.130Z,1.83
2019-03-08T04:01:52.360Z,1.33
2019-03-08T04:06:57.596Z,1.70
2019-03-08T04:12:02.815Z,1.30
2019-03-08T04:17:08.071Z,1.23
2019-03-08T04:22:13.355Z,0.90
2019-03-08T04:27:18.581Z,1.00
2019-03-08T04:32:23.801Z,1.43
2019-03-08T04:37:29.139Z,1.23
2019-03-08T04:42:34.419Z,1.30
2019-03-08T04:47:39.746Z,1.20
2019-03-08T04:52:45.053Z,1.50
2019-03-08T04:57:50.448Z,1.17
2019-03-08T05:02:55.759Z,1.40
2019-03-08T05:08:00.984Z,1.47
2019-03-08T05:13:06.242Z,1.30
2019-03-08T05:18:11.517Z,1.70
2019-03-08T05:23:16.999Z,1.70
2019-03-08T05:28:22.282Z,1.60
2019-03-08T05:33:27.482Z,1.43
2019-03-08T05:38:32.830Z,1.60
2019-03-08T05:43:38.090Z,1.13
2019-03-08T05:48:43.315Z,1.13
2019-03-08T05:53:48.605Z,1.10
2019-03-08T05:58:53.803Z,1.20
2019-03-08T06:03:59.075Z,1.33
2019-03-08T06:09:05.873Z,1.13
2019-03-08T06:14:11.146Z,1.40
2019-03-08T06:19:16.410Z,1.00
2019-03-08T06:24:21.737Z,1.07
2019-03-08T06:29:27.142Z,1.40
2019-03-08T06:34:32.936Z,0.87
2019-03-08T06:39:38.348Z,0.70
2019-03-08T06:44:43.618Z,0.70
2019-03-08T06:49:48.856Z,1.00
2019-03-08T06:54:54.243Z,0.90
2019-03-08T07:00:07.276Z,0.87
2019-03-08T07:05:12.535Z,0.70
2019-03-08T07:10:17.844Z,0.60
2019-03-08T07:15:23.382Z,0.80
2019-03-08T07:20:36.987Z,1.00
2019-03-08T07:25:54.186Z,1.02
2019-03-08T07:31:11.436Z,0.97
2019-03-08T07:36:24.952Z,1.50
2019-03-08T07:41:38.078Z,1.30
2019-03-08T07:46:52.027Z,1.50
2019-03-08T07:52:07.112Z,0.80
2019-03-08T07:57:21.059Z,0.90
2019-03-08T08:02:34.987Z,0.83
2019-03-08T08:07:46.727Z,2.17
2019-03-08T08:13:02.024Z,1.10
2019-03-08T08:18:14.819Z,0.87
2019-03-08T08:23:34.352Z,1.70
2019-03-08T08:28:50.649Z,1.00
2019-03-08T08:34:05.246Z,1.20
2019-03-08T08:39:32.240Z,1.13
2019-03-08T08:44:49.491Z,0.90
2019-03-08T08:50:03.155Z,1.43
2019-03-08T08:55:19.597Z,1.50
2019-03-08T09:00:31.900Z,1.70
2019-03-08T09:05:42.426Z,1.37
2019-03-08T09:10:54.725Z,1.53
2019-03-08T09:21:26.702Z,1.70
2019-03-08T09:26:39.985Z,1.67
2019-03-08T09:31:53.321Z,1.62
2019-03-08T09:37:09.310Z,1.50
2019-03-08T09:42:22.995Z,1.50
2019-03-08T09:47:36.939Z,1.50
2019-03-08T09:52:51.122Z,1.05
2019-03-08T09:58:15.234Z,2.27
2019-03-08T10:03:39.382Z,1.00
2019-03-08T10:08:53.918Z,1.42
2019-03-08T10:14:09.144Z,1.73
2019-03-08T10:19:30.000Z,1.20
2019-03-08T10:24:51.287Z,1.30
2019-03-08T10:30:04.997Z,1.97
2019-03-08T10:35:23.965Z,1.37
2019-03-08T10:40:34.915Z,1.70
2019-03-08T10:45:50.105Z,1.40
2019-03-08T10:51:01.670Z,1.90
2019-03-08T10:56:23.349Z,1.20
2019-03-08T11:01:35.561Z,0.80
2019-03-08T11:06:50.348Z,0.98
2019-03-08T11:12:03.995Z,0.70
2019-03-08T11:17:11.230Z,0.90
2019-03-08T11:22:25.007Z,1.30
2019-03-08T11:27:44.011Z,1.13
2019-03-08T11:32:57.975Z,0.47
2019-03-08T11:38:11.969Z,0.90
2019-03-08T11:43:28.995Z,1.00
2019-03-08T11:48:46.960Z,1.13
2019-03-08T11:54:05.130Z,1.20
2019-03-08T11:59:23.410Z,1.00
2019-03-08T12:04:36.916Z,1.37
2019-03-08T12:09:47.161Z,1.20
2019-03-08T12:15:00.983Z,1.03
2019-03-08T12:20:14.189Z,1.33
2019-03-08T12:25:34.014Z,1.40
2019-03-08T12:30:52.643Z,1.17
2019-03-08T12:36:05.981Z,1.30
2019-03-08T12:41:25.115Z,1.53
2019-03-08T12:46:39.010Z,0.70
2019-03-08T12:51:53.160Z,0.70
2019-03-08T12:57:06.911Z,0.90
2019-03-08T13:02:19.364Z,0.63
2019-03-08T13:07:34.231Z,1.20
2019-03-08T13:12:39.566Z,0.80
2019-03-08T13:17:45.021Z,1.20
2019-03-08T13:22:50.403Z,1.05
2019-03-08T13:27:55.895Z,0.90
2019-03-08T13:33:01.300Z,1.20
2019-03-08T13:38:09.847Z,0.93
2019-03-08T13:43:15.231Z,0.93
2019-03-08T13:48:20.588Z,0.93
2019-03-08T13:53:25.864Z,1.07
2019-03-08T13:58:31.174Z,1.00
2019-03-08T14:03:36.690Z,0.90
2019-03-08T14:08:41.996Z,1.50
2019-03-08T14:13:47.695Z,0.90
2019-03-08T14:18:52.956Z,0.87
2019-03-08T14:23:58.631Z,0.83
2019-03-08T14:29:03.950Z,1.77
2019-03-08T14:34:10.830Z,1.10
2019-03-08T14:39:17.697Z,0.43
2019-03-08T14:44:34.986Z,0.57
2019-03-08T14:49:40.225Z,0.40
2019-03-08T14:54:46.416Z,0.50
2019-03-08T14:59:53.040Z,0.30
2019-03-08T15:04:59.205Z,0.50
2019-03-08T15:10:07.726Z,0.50
2019-03-08T15:15:13.520Z,0.50
2019-03-08T15:20:19.201Z,0.50
2019-03-08T15:25:31.249Z,0.30
2019-03-08T15:30:35.596Z,0.33
2019-03-08T15:35:40.953Z,0.70
2019-03-08T15:40:46.367Z,1.10
2019-03-08T15:45:53.846Z,1.43
2019-03-08T15:50:59.583Z,1.93
2019-03-08T15:56:05.306Z,1.80
2019-03-08T16:01:10.725Z,1.77
2019-03-08T16:06:16.375Z,3.00
2019-03-08T16:11:21.625Z,4.13
2019-03-08T16:16:27.454Z,7.17
2019-03-08T16:21:32.728Z,13.10
2019-03-08T16:26:38.206Z,11.57
2019-03-08T16:31:49.700Z,7.55
2019-03-08T16:37:00.124Z,7.50
2019-03-08T16:42:10.260Z,12.97
2019-03-08T16:47:24.006Z,17.27
2019-03-08T16:52:38.004Z,19.90
2019-03-08T16:57:54.922Z,4.72
2019-03-08T17:03:09.226Z,13.00
2019-03-08T17:08:21.771Z,3.10
2019-03-08T17:13:37.640Z,7.03
2019-03-08T17:18:54.746Z,7.50
2019-03-08T17:24:08.961Z,4.60
2019-03-08T17:29:23.462Z,4.40
2019-03-08T17:34:41.026Z,9.37
2019-03-08T17:39:53.506Z,4.47
2019-03-08T17:45:07.131Z,4.00
2019-03-08T17:50:21.047Z,4.27
2019-03-08T17:55:36.591Z,5.17
2019-03-08T18:01:00.764Z,4.12
2019-03-08T18:06:15.029Z,4.07
2019-03-08T18:11:39.658Z,5.70
2019-03-08T18:16:54.491Z,5.10
2019-03-08T18:22:06.393Z,5.77
2019-03-08T18:27:20.791Z,6.33
2019-03-08T18:32:32.856Z,6.87
2019-03-08T18:37:45.818Z,8.80
2019-03-08T18:42:57.872Z,7.57
2019-03-08T18:48:12.011Z,7.40
2019-03-08T18:53:26.014Z,6.73
2019-03-08T18:58:40.271Z,8.23
2019-03-08T19:04:04.529Z,8.20
2019-03-08T19:09:18.192Z,7.57
2019-03-08T19:14:36.429Z,8.20
2019-03-08T19:19:50.371Z,8.40
2019-03-08T19:25:05.280Z,8.97
2019-03-08T19:30:22.110Z,9.70
2019-03-08T19:35:42.672Z,10.03
2019-03-08T19:40:55.931Z,9.80
2019-03-08T19:46:12.831Z,8.97
2019-03-08T19:51:35.055Z,9.87
2019-03-08T19:56:46.710Z,8.73
2019-03-08T20:02:00.088Z,9.73
2019-03-08T20:07:23.288Z,9.30
2019-03-08T20:12:36.951Z,10.10
2019-03-08T20:18:01.207Z,10.57
2019-03-08T20:23:15.038Z,10.40
2019-03-08T20:28:28.992Z,12.70
2019-03-08T20:33:44.532Z,10.50
2019-03-08T20:38:58.018Z,9.35
2019-03-08T20:44:11.712Z,10.10
2019-03-08T20:49:17.191Z,9.47
2019-03-08T20:54:22.572Z,10.00
2019-03-08T20:59:28.286Z,9.37
2019-03-08T21:04:34.312Z,9.57
2019-03-08T21:09:42.691Z,9.37
2019-03-08T21:14:48.013Z,9.50
2019-03-08T21:19:53.751Z,9.03
2019-03-08T21:24:59.950Z,9.07
2019-03-08T21:30:07.311Z,10.00
2019-03-08T21:35:15.630Z,8.87
2019-03-08T21:40:21.352Z,10.20
2019-03-08T21:45:26.752Z,8.77
2019-03-08T21:50:32.487Z,8.27
2019-03-08T21:55:37.849Z,8.17
2019-03-08T22:00:43.630Z,10.18
2019-03-08T22:05:48.932Z,9.77
2019-03-08T22:11:04.091Z,8.20
2019-03-08T22:16:09.387Z,7.83
2019-03-08T22:21:14.811Z,7.67
2019-03-08T22:26:22.621Z,8.13
2019-03-08T22:31:27.958Z,7.50
2019-03-08T22:36:33.424Z,7.97
2019-03-08T22:41:38.842Z,8.07
2019-03-08T22:46:45.488Z,7.50
2019-03-08T22:51:51.035Z,8.20
2019-03-08T22:56:56.283Z,8.23
2019-03-08T23:02:08.146Z,8.40
2019-03-08T23:07:13.482Z,7.20
2019-03-08T23:12:18.934Z,6.73
2019-03-08T23:17:24.400Z,6.70
2019-03-08T23:22:29.737Z,6.80
2019-03-08T23:27:39.990Z,5.83
2019-03-08T23:32:48.225Z,6.28
2019-03-08T23:37:53.466Z,6.20
2019-03-08T23:42:58.809Z,5.97
2019-03-08T23:48:04.054Z,6.30
2019-03-08T23:53:09.334Z,5.50
2019-03-08T23:58:14.610Z,6.03
